createdAt,value
2022-10-25T00:02:18.007Z,5.68
2022-10-25T00:04:46.735Z,4.60
2022-10-25T00:07:15.683Z,5.38
2022-10-25T00:09:45.449Z,5.75
2022-10-25T00:12:13.848Z,4.80
2022-10-25T00:14:42.217Z,5.75
2022-10-25T00:17:10.894Z,5.20
2022-10-25T00:19:39.349Z,5.57
2022-10-25T00:22:07.747Z,5.13
2022-10-25T00:24:36.034Z,5.30
2022-10-25T00:27:06.811Z,6.00
2022-10-25T00:29:35.350Z,5.82
2022-10-25T00:32:03.931Z,5.57
2022-10-25T00:34:32.413Z,5.30
2022-10-25T00:37:00.798Z,5.40
2022-10-25T00:39:29.263Z,4.95
2022-10-25T00:41:57.543Z,5.43
2022-10-25T00:44:51.625Z,5.65
2022-10-25T00:47:31.479Z,5.63
2022-10-25T00:50:05.033Z,5.72
2022-10-25T00:52:38.149Z,5.28
2022-10-25T00:55:08.730Z,5.13
2022-10-25T00:57:43.981Z,5.78
2022-10-25T01:00:15.203Z,5.90
2022-10-25T01:02:44.019Z,5.55
2022-10-25T01:05:12.640Z,5.70
2022-10-25T01:07:41.342Z,5.57
2022-10-25T01:10:11.457Z,6.97
2022-10-25T01:12:39.929Z,5.35
2022-10-25T01:15:10.063Z,6.25
2022-10-25T01:17:52.759Z,5.43
2022-10-25T01:20:59.030Z,5.93
2022-10-25T01:23:59.203Z,6.20
2022-10-25T01:27:28.383Z,6.25
2022-10-25T01:30:09.863Z,6.40
2022-10-25T01:32:49.242Z,6.20
2022-10-25T01:35:28.127Z,6.60
2022-10-25T01:38:27.941Z,7.72
2022-10-25T01:41:10.675Z,6.40
2022-10-25T01:43:47.648Z,6.35
2022-10-25T01:46:22.692Z,7.13
2022-10-25T01:49:00.649Z,6.32
2022-10-25T01:51:29.886Z,6.25
2022-10-25T01:53:58.748Z,6.38
2022-10-25T01:56:31.551Z,5.80
2022-10-25T01:59:24.040Z,6.40
2022-10-25T02:02:03.343Z,6.07
2022-10-25T02:04:47.636Z,6.00
2022-10-25T02:07:25.068Z,5.90
2022-10-25T02:12:49.701Z,5.97
2022-10-25T02:15:26.084Z,6.60
2022-10-25T02:18:00.321Z,6.07
2022-10-25T02:20:35.173Z,5.75
2022-10-25T02:23:06.796Z,7.03
2022-10-25T02:25:37.480Z,6.38
2022-10-25T02:33:06.533Z,5.97
2022-10-25T02:35:36.424Z,6.22
2022-10-25T02:38:05.282Z,5.72
2022-10-25T02:40:33.702Z,6.07
2022-10-25T02:43:02.027Z,6.00
2022-10-25T02:45:30.275Z,6.20
2022-10-25T02:47:58.583Z,6.03
2022-10-25T02:50:26.911Z,6.32
2022-10-25T02:52:56.615Z,7.15
2022-10-25T02:55:24.929Z,5.72
2022-10-25T02:57:53.173Z,5.75
2022-10-25T03:00:21.806Z,6.35
2022-10-25T03:02:50.304Z,5.65
2022-10-25T03:05:18.714Z,6.65
2022-10-25T03:07:46.990Z,6.25
2022-10-25T03:10:16.802Z,6.18
2022-10-25T03:12:45.394Z,6.15
2022-10-25T03:15:14.105Z,5.40
2022-10-25T03:17:44.462Z,6.07
2022-10-25T03:20:13.099Z,6.28
2022-10-25T03:22:41.354Z,6.22
2022-10-25T03:25:10.403Z,5.97
2022-10-25T03:27:40.045Z,5.72
2022-10-25T03:30:09.663Z,6.10
2022-10-25T03:32:38.547Z,6.43
2022-10-25T03:35:08.614Z,5.85
2022-10-25T03:37:36.975Z,6.75
2022-10-25T03:40:06.433Z,7.03
2022-10-25T03:42:34.709Z,5.55
2022-10-25T03:45:04.779Z,6.22
2022-10-25T03:47:33.038Z,5.93
2022-10-25T03:50:01.360Z,6.57
2022-10-25T03:52:29.612Z,5.22
2022-10-25T03:54:57.859Z,5.80
2022-10-25T03:57:26.186Z,6.38
2022-10-25T03:59:54.487Z,6.63
2022-10-25T04:02:25.250Z,6.25
2022-10-25T04:04:53.844Z,7.00
2022-10-25T04:07:22.368Z,6.55
2022-10-25T04:09:50.745Z,6.70
2022-10-25T04:12:19.033Z,6.28
2022-10-25T04:14:47.338Z,5.70
2022-10-25T04:17:15.622Z,6.20
2022-10-25T04:19:45.451Z,6.90
2022-10-25T04:22:14.492Z,6.30
2022-10-25T04:24:42.738Z,6.47
2022-10-25T04:27:11.034Z,5.82
2022-10-25T04:29:39.409Z,6.32
2022-10-25T04:32:08.214Z,6.38
2022-10-25T04:34:36.564Z,6.22
2022-10-25T04:37:06.358Z,6.07
2022-10-25T04:39:34.675Z,6.63
2022-10-25T04:42:03.049Z,6.25
2022-10-25T04:44:31.376Z,6.50
2022-10-25T04:46:59.554Z,6.70
2022-10-25T04:49:27.931Z,5.68
2022-10-25T04:51:56.196Z,5.70
2022-10-25T04:54:26.027Z,5.47
2022-10-25T04:56:54.352Z,5.43
2022-10-25T04:59:26.979Z,5.82
2022-10-25T05:01:55.364Z,5.50
2022-10-25T05:04:23.880Z,6.07
2022-10-25T05:06:52.236Z,5.53
2022-10-25T05:09:20.511Z,5.35
2022-10-25T05:11:50.203Z,5.70
2022-10-25T05:14:18.580Z,6.88
2022-10-25T05:16:46.871Z,5.65
2022-10-25T05:19:15.321Z,5.97
2022-10-25T05:21:43.722Z,5.85
2022-10-25T05:24:12.003Z,6.05
2022-10-25T05:26:40.272Z,6.03
2022-10-25T05:29:13.333Z,6.60
2022-10-25T05:31:42.870Z,5.65
2022-10-25T05:34:12.038Z,5.90
2022-10-25T05:36:40.404Z,6.78
2022-10-25T05:39:08.780Z,6.88
2022-10-25T05:41:37.434Z,6.32
2022-10-25T05:44:06.408Z,6.75
2022-10-25T05:46:36.217Z,6.15
2022-10-25T05:49:05.035Z,7.55
2022-10-25T05:51:36.305Z,6.57
2022-10-25T05:54:07.461Z,7.00
2022-10-25T05:59:08.881Z,7.63
2022-10-25T06:01:41.969Z,7.75
2022-10-25T06:04:11.443Z,7.50
2022-10-25T06:06:41.185Z,8.07
2022-10-25T06:09:10.368Z,8.40
2022-10-25T06:11:39.926Z,8.40
2022-10-25T06:14:10.379Z,8.43
2022-10-25T06:16:40.108Z,7.45
2022-10-25T06:19:08.860Z,8.38
2022-10-25T06:21:37.692Z,8.13
2022-10-25T06:24:06.777Z,7.28
2022-10-25T06:26:35.082Z,7.72
2022-10-25T06:29:06.145Z,7.75
2022-10-25T06:31:35.097Z,7.80
2022-10-25T06:34:05.062Z,7.95
2022-10-25T06:36:33.450Z,7.93
2022-10-25T06:39:05.577Z,7.75
2022-10-25T06:41:36.997Z,8.32
2022-10-25T06:47:11.804Z,9.10
2022-10-25T06:49:28.055Z,8.05
2022-10-25T06:51:56.337Z,8.50
2022-10-25T06:54:26.638Z,9.65
2022-10-25T06:56:55.090Z,7.93
2022-10-25T06:59:26.381Z,7.80
2022-10-25T07:01:55.350Z,8.52
2022-10-25T07:04:23.737Z,7.50
2022-10-25T07:06:55.341Z,7.78
2022-10-25T07:09:24.080Z,8.05
2022-10-25T07:11:52.444Z,7.55
2022-10-25T07:14:20.861Z,7.72
2022-10-25T07:16:49.219Z,7.18
2022-10-25T07:19:17.499Z,6.80
2022-10-25T07:21:46.382Z,5.88
2022-10-25T07:24:16.100Z,6.13
2022-10-25T07:26:45.057Z,5.83
2022-10-25T07:29:13.294Z,5.32
2022-10-25T07:31:44.247Z,5.50
2022-10-25T07:34:15.234Z,5.40
2022-10-25T07:36:43.570Z,5.97
2022-10-25T07:39:11.935Z,5.50
2022-10-25T07:41:41.626Z,5.00
2022-10-25T07:44:15.589Z,5.57
2022-10-25T07:46:45.138Z,5.40
2022-10-25T07:49:13.728Z,4.82
2022-10-25T07:51:42.045Z,5.00
2022-10-25T07:54:10.517Z,5.43
2022-10-25T07:56:38.722Z,5.75
2022-10-25T07:59:08.390Z,5.90
2022-10-25T08:01:37.682Z,6.67
2022-10-25T08:04:06.112Z,5.50
2022-10-25T08:06:36.164Z,5.50
2022-10-25T08:09:14.435Z,6.28
2022-10-25T08:11:48.805Z,6.63
2022-10-25T08:14:18.482Z,6.80
2022-10-25T08:16:46.861Z,7.23
2022-10-25T08:19:15.128Z,6.82
2022-10-25T08:21:43.577Z,7.18
2022-10-25T08:24:12.163Z,8.10
2022-10-25T08:26:40.486Z,7.90
2022-10-25T08:29:08.809Z,8.82
2022-10-25T08:31:38.544Z,9.57
2022-10-25T08:34:07.044Z,9.70
2022-10-25T08:36:35.457Z,10.05
2022-10-25T08:39:03.891Z,10.73
2022-10-25T08:41:44.386Z,9.90
2022-10-25T08:44:30.793Z,10.63
2022-10-25T08:47:05.920Z,10.68
2022-10-25T08:49:49.752Z,12.02
2022-10-25T08:52:22.858Z,10.90
2022-10-25T08:54:51.932Z,10.48
2022-10-25T08:57:25.439Z,10.45
2022-10-25T08:59:57.063Z,11.63
2022-10-25T09:02:37.513Z,11.80
2022-10-25T09:05:13.915Z,11.20
2022-10-25T09:08:08.512Z,10.43
2022-10-25T09:10:51.565Z,11.85
2022-10-25T09:16:16.620Z,11.77
2022-10-25T09:18:51.114Z,12.82
2022-10-25T09:21:24.238Z,12.68
2022-10-25T09:24:00.608Z,12.50
2022-10-25T09:26:47.524Z,13.13
2022-10-25T09:29:25.172Z,13.38
2022-10-25T09:31:58.842Z,14.10
2022-10-25T09:34:34.019Z,13.60
2022-10-25T09:37:15.114Z,12.93
2022-10-25T09:39:47.539Z,14.07
2022-10-25T09:42:21.946Z,13.93
2022-10-25T09:44:55.208Z,14.48
2022-10-25T09:47:42.912Z,13.13
2022-10-25T09:50:22.359Z,12.38
2022-10-25T09:53:09.926Z,12.18
2022-10-25T09:55:45.242Z,12.00
2022-10-25T09:58:21.148Z,11.73
2022-10-25T10:00:50.119Z,12.23
2022-10-25T10:03:21.787Z,10.93
2022-10-25T10:05:55.243Z,11.65
2022-10-25T10:08:23.891Z,12.13
2022-10-25T10:10:54.541Z,11.20
2022-10-25T10:16:01.155Z,9.48
2022-10-25T10:18:31.931Z,8.52
2022-10-25T10:21:14.983Z,8.48
2022-10-25T10:23:52.602Z,9.10
2022-10-25T10:26:29.713Z,8.40
2022-10-25T10:29:08.901Z,8.30
2022-10-25T10:31:39.841Z,9.32
2022-10-25T10:36:47.458Z,8.23
2022-10-25T10:39:22.678Z,7.97
2022-10-25T10:42:03.287Z,8.25
2022-10-25T10:44:34.698Z,8.07
2022-10-25T10:47:11.654Z,7.90
2022-10-25T10:49:43.264Z,8.07
2022-10-25T10:52:29.291Z,6.95
2022-10-25T10:54:58.261Z,8.05
2022-10-25T10:57:34.029Z,7.50
2022-10-25T11:00:02.955Z,7.28
2022-10-25T11:02:42.974Z,7.75
2022-10-25T11:05:27.562Z,8.10
2022-10-25T11:08:00.642Z,7.28
2022-10-25T11:10:33.891Z,7.63
2022-10-25T11:13:20.985Z,6.30
2022-10-25T11:16:21.026Z,7.38
2022-10-25T11:19:10.074Z,7.90
2022-10-25T11:22:12.898Z,7.63
2022-10-25T11:24:56.445Z,7.65
2022-10-25T11:27:38.771Z,7.57
2022-10-25T11:30:14.139Z,9.00
2022-10-25T11:33:17.602Z,8.20
2022-10-25T11:36:07.182Z,7.90
2022-10-25T11:38:48.919Z,7.38
2022-10-25T11:41:32.418Z,6.72
2022-10-25T11:44:47.679Z,6.90
2022-10-25T11:47:29.387Z,6.45
2022-10-25T11:50:11.952Z,6.55
2022-10-25T11:53:16.088Z,6.65
2022-10-25T11:55:49.725Z,6.53
2022-10-25T11:58:37.008Z,7.13
2022-10-25T12:01:21.069Z,6.57
2022-10-25T12:04:03.881Z,6.90
2022-10-25T12:06:41.960Z,6.70
2022-10-25T12:09:25.319Z,6.03
2022-10-25T12:11:59.779Z,5.47
2022-10-25T12:14:36.115Z,6.13
2022-10-25T12:17:09.058Z,6.70
2022-10-25T12:19:46.601Z,5.93
2022-10-25T12:22:19.854Z,5.22
2022-10-25T12:24:52.878Z,5.85
2022-10-25T12:27:23.042Z,5.13
2022-10-25T12:29:56.426Z,6.28
2022-10-25T12:32:33.479Z,6.00
2022-10-25T12:35:06.988Z,6.30
2022-10-25T12:37:40.266Z,5.82
2022-10-25T12:40:16.235Z,5.72
2022-10-25T12:42:48.351Z,5.35
2022-10-25T12:46:00.012Z,5.57
2022-10-25T12:48:58.862Z,5.15
2022-10-25T12:51:45.160Z,5.25
2022-10-25T12:54:54.817Z,6.82
2022-10-25T12:57:32.866Z,5.95
2022-10-25T13:00:12.590Z,5.57
2022-10-25T13:03:19.293Z,5.27
2022-10-25T13:06:27.798Z,5.40
2022-10-25T13:09:03.078Z,5.40
2022-10-25T13:11:38.306Z,5.63
2022-10-25T13:14:15.906Z,5.07
2022-10-25T13:16:47.058Z,4.95
2022-10-25T13:22:39.898Z,5.30
2022-10-25T13:25:19.704Z,4.82
2022-10-25T13:28:34.036Z,5.10
2022-10-25T13:31:58.572Z,5.25
2022-10-25T13:34:36.896Z,4.70
2022-10-25T13:37:42.392Z,4.57
2022-10-25T13:40:26.819Z,5.20
2022-10-25T13:43:04.836Z,5.22
2022-10-25T13:45:44.408Z,5.28
2022-10-25T13:48:29.897Z,5.75
2022-10-25T13:51:01.504Z,4.72
2022-10-25T13:53:38.085Z,4.78
2022-10-25T13:56:10.328Z,5.00
2022-10-25T13:58:53.365Z,4.57
2022-10-25T14:01:57.070Z,5.18
2022-10-25T14:04:44.700Z,4.90
2022-10-25T14:07:49.049Z,5.07
2022-10-25T14:10:29.240Z,4.35
2022-10-25T14:13:09.671Z,4.30
2022-10-25T14:15:46.746Z,4.60
2022-10-25T14:18:20.758Z,4.38
2022-10-25T14:20:55.485Z,4.78
2022-10-25T14:23:30.178Z,5.78
2022-10-25T14:26:01.220Z,4.78
2022-10-25T14:28:31.071Z,4.53
2022-10-25T14:31:01.535Z,5.45
2022-10-25T14:33:32.215Z,4.85
2022-10-25T14:38:52.664Z,5.13
2022-10-25T14:41:26.525Z,5.22
2022-10-25T14:43:55.891Z,5.13
2022-10-25T14:46:25.563Z,5.38
2022-10-25T14:48:58.046Z,4.90
2022-10-25T14:51:30.321Z,5.45
2022-10-25T14:54:04.657Z,4.72
2022-10-25T14:56:37.120Z,4.88
2022-10-25T14:59:09.181Z,5.05
2022-10-25T15:01:38.662Z,5.10
2022-10-25T15:04:07.127Z,5.45
2022-10-25T15:06:35.580Z,5.18
2022-10-25T15:12:17.003Z,4.82
2022-10-25T15:14:47.434Z,4.78
2022-10-25T15:17:26.423Z,4.85
2022-10-25T15:20:07.603Z,5.38
2022-10-25T15:22:45.690Z,4.85
2022-10-25T15:25:32.859Z,4.55
2022-10-25T15:28:11.912Z,5.03
2022-10-25T15:30:43.506Z,4.35
2022-10-25T15:33:14.839Z,4.85
2022-10-25T15:35:52.200Z,4.57
2022-10-25T15:38:20.938Z,4.70
2022-10-25T15:40:50.966Z,4.57
2022-10-25T15:43:19.316Z,3.97
2022-10-25T15:45:47.740Z,4.13
2022-10-25T15:48:18.718Z,4.10
2022-10-25T15:50:52.666Z,4.65
2022-10-25T15:53:21.964Z,4.30
2022-10-25T15:55:52.911Z,4.60
2022-10-25T15:58:21.270Z,4.70
2022-10-25T16:00:52.091Z,4.90
2022-10-25T16:03:24.462Z,4.68
2022-10-25T16:05:53.751Z,5.40
2022-10-25T16:08:22.101Z,4.63
2022-10-25T16:10:52.138Z,4.90
2022-10-25T16:13:27.192Z,5.03
2022-10-25T16:15:55.680Z,4.97
2022-10-25T16:20:59.132Z,4.32
2022-10-25T16:23:28.273Z,4.40
2022-10-25T16:25:57.913Z,4.70
2022-10-25T16:30:59.549Z,4.32
2022-10-25T16:33:27.894Z,4.30
2022-10-25T16:35:56.118Z,4.18
2022-10-25T16:38:24.433Z,4.32
2022-10-25T16:40:52.875Z,4.13
2022-10-25T16:43:22.791Z,4.50
2022-10-25T16:45:51.164Z,5.22
2022-10-25T16:48:19.491Z,4.45
2022-10-25T16:50:47.847Z,4.18
2022-10-25T16:53:16.178Z,3.83
2022-10-25T16:55:44.573Z,3.67
2022-10-25T16:58:12.794Z,4.03
2022-10-25T17:00:42.521Z,4.00
2022-10-25T17:03:11.506Z,4.93
2022-10-25T17:05:40.284Z,4.88
2022-10-25T17:08:08.664Z,4.65
2022-10-25T17:10:42.458Z,4.75
2022-10-25T17:13:15.636Z,4.47
2022-10-25T17:15:45.424Z,5.07
2022-10-25T17:18:20.882Z,5.00
2022-10-25T17:20:50.226Z,4.55
2022-10-25T17:23:18.478Z,4.80
2022-10-25T17:25:46.759Z,5.32
2022-10-25T17:28:15.146Z,5.55
2022-10-25T17:30:44.932Z,4.85
2022-10-25T17:33:13.175Z,5.00
2022-10-25T17:35:42.748Z,4.95
2022-10-25T17:38:11.122Z,4.43
2022-10-25T17:40:39.795Z,4.68
2022-10-25T17:43:08.167Z,5.15
2022-10-25T17:45:36.483Z,5.28
2022-10-25T17:48:06.942Z,5.20
2022-10-25T17:50:40.835Z,5.00
2022-10-25T17:53:10.633Z,5.18
2022-10-25T17:55:41.160Z,5.00
2022-10-25T18:00:37.817Z,5.18
2022-10-25T18:03:07.727Z,6.32
2022-10-25T18:05:36.231Z,6.78
2022-10-25T18:08:04.559Z,6.40
2022-10-25T18:10:34.760Z,6.60
2022-10-25T18:13:03.293Z,6.45
2022-10-25T18:15:33.334Z,6.20
2022-10-25T18:18:01.790Z,6.45
2022-10-25T18:20:31.424Z,5.95
2022-10-25T18:22:59.739Z,6.88
2022-10-25T18:25:27.967Z,6.95
2022-10-25T18:27:56.338Z,6.72
2022-10-25T18:30:24.670Z,7.78
2022-10-25T18:32:56.345Z,7.55
2022-10-25T18:35:24.599Z,7.03
2022-10-25T18:37:54.229Z,6.03
2022-10-25T18:40:22.936Z,5.87
2022-10-25T18:42:51.180Z,6.28
2022-10-25T18:45:19.476Z,6.57
2022-10-25T18:47:53.214Z,5.88
2022-10-25T18:50:21.789Z,5.78
2022-10-25T18:52:50.171Z,6.00
2022-10-25T18:55:21.492Z,6.15
2022-10-25T18:57:50.209Z,5.60
2022-10-25T19:00:19.544Z,5.90
2022-10-25T19:02:52.570Z,6.07
2022-10-25T19:05:21.011Z,6.20
2022-10-25T19:07:49.501Z,6.15
2022-10-25T19:10:19.662Z,6.07
2022-10-25T19:12:48.042Z,5.97
2022-10-25T19:15:16.436Z,7.00
2022-10-25T19:17:44.863Z,5.97
2022-10-25T19:20:13.398Z,6.22
2022-10-25T19:22:41.786Z,6.80
2022-10-25T19:25:10.833Z,6.40
2022-10-25T19:27:40.460Z,6.07
2022-10-25T19:30:10.464Z,6.82
2022-10-25T19:32:38.781Z,6.55
2022-10-25T19:35:07.709Z,7.75
2022-10-25T19:37:39.504Z,6.40
2022-10-25T19:40:10.629Z,6.80
2022-10-25T19:42:40.406Z,6.40
2022-10-25T19:45:09.340Z,6.97
2022-10-25T19:47:37.626Z,6.75
2022-10-25T19:50:06.696Z,6.80
2022-10-25T19:52:36.214Z,6.63
2022-10-25T19:55:06.176Z,6.55
2022-10-25T19:57:35.355Z,6.15
2022-10-25T20:00:09.850Z,6.60
2022-10-25T20:02:41.038Z,6.35
2022-10-25T20:07:39.916Z,6.75
2022-10-25T20:10:09.088Z,7.30
2022-10-25T20:12:37.339Z,6.80
2022-10-25T20:15:08.656Z,6.95
2022-10-25T20:17:37.201Z,6.45
2022-10-25T20:20:06.787Z,6.40
2022-10-25T20:22:38.060Z,6.95
2022-10-25T20:25:08.030Z,7.40
2022-10-25T20:27:36.640Z,6.95
2022-10-25T20:30:07.847Z,7.22
2022-10-25T20:32:36.294Z,7.22
2022-10-25T20:37:38.032Z,6.93
2022-10-25T20:40:07.865Z,7.57
2022-10-25T20:42:36.175Z,7.22
2022-10-25T20:45:06.493Z,7.22
2022-10-25T20:47:34.851Z,7.43
2022-10-25T20:50:03.128Z,7.80
2022-10-25T20:52:31.518Z,7.15
2022-10-25T20:54:59.813Z,7.82
2022-10-25T20:57:28.231Z,7.40
2022-10-25T20:59:56.451Z,7.68
2022-10-25T21:02:26.170Z,7.47
2022-10-25T21:04:54.689Z,7.82
2022-10-25T21:07:23.200Z,7.65
2022-10-25T21:09:51.545Z,7.40
2022-10-25T21:12:19.899Z,6.75
2022-10-25T21:14:48.160Z,6.90
2022-10-25T21:17:16.579Z,7.03
2022-10-25T21:19:46.328Z,6.00
2022-10-25T21:22:14.635Z,7.17
2022-10-25T21:24:42.916Z,7.82
2022-10-25T21:27:11.187Z,7.30
2022-10-25T21:29:39.493Z,7.72
2022-10-25T21:32:07.947Z,7.05
2022-10-25T21:34:36.348Z,7.82
2022-10-25T21:37:06.076Z,7.78
2022-10-25T21:39:34.304Z,7.38
2022-10-25T21:42:02.607Z,7.45
2022-10-25T21:44:30.837Z,7.88
2022-10-25T21:46:59.118Z,8.10
2022-10-25T21:49:27.339Z,9.88
2022-10-25T21:51:55.581Z,10.13
2022-10-25T21:54:25.383Z,9.35
2022-10-25T21:56:54.118Z,9.20
2022-10-25T21:59:23.273Z,8.68
2022-10-25T22:01:51.611Z,9.00
2022-10-25T22:04:20.042Z,9.50
2022-10-25T22:06:48.434Z,8.23
2022-10-25T22:09:16.832Z,8.30
2022-10-25T22:11:46.459Z,9.15
2022-10-25T22:14:15.910Z,8.43
2022-10-25T22:16:44.809Z,8.77
2022-10-25T22:19:17.002Z,8.20
2022-10-25T22:21:46.356Z,9.27
2022-10-25T22:24:14.765Z,8.40
2022-10-25T22:26:46.321Z,9.93
2022-10-25T22:29:15.606Z,8.70
2022-10-25T22:31:44.021Z,8.73
2022-10-25T22:34:12.583Z,8.82
2022-10-25T22:36:42.573Z,8.30
2022-10-25T22:39:11.592Z,8.05
2022-10-25T22:41:39.897Z,9.25
2022-10-25T22:44:09.695Z,8.43
2022-10-25T22:46:38.010Z,9.27
2022-10-25T22:49:08.597Z,9.82
2022-10-25T22:51:38.610Z,9.98
2022-10-25T22:54:07.591Z,9.57
2022-10-25T22:56:35.968Z,9.27
2022-10-25T22:59:07.068Z,10.82
2022-10-25T23:01:38.667Z,9.35
2022-10-25T23:04:08.955Z,9.60
2022-10-25T23:06:40.128Z,10.27
2022-10-25T23:09:11.080Z,8.75
2022-10-25T23:11:41.442Z,9.52
2022-10-25T23:14:14.755Z,8.05
2022-10-25T23:16:47.262Z,9.38
2022-10-25T23:19:15.731Z,9.07
2022-10-25T23:21:44.100Z,9.30
2022-10-25T23:24:12.334Z,9.07
2022-10-25T23:26:40.872Z,8.98
2022-10-25T23:29:11.285Z,9.45
2022-10-25T23:31:39.690Z,8.43
2022-10-25T23:34:09.809Z,9.15
2022-10-25T23:36:38.219Z,8.55
2022-10-25T23:39:09.048Z,8.82
2022-10-25T23:41:37.624Z,8.75
2022-10-25T23:44:06.113Z,8.15
2022-10-25T23:46:34.390Z,8.63
2022-10-25T23:49:02.725Z,8.15
2022-10-25T23:51:32.285Z,7.93
2022-10-25T23:54:00.635Z,8.15
2022-10-25T23:56:28.899Z,7.47
2022-10-25T23:58:57.187Z,8.50
